CYHA

Quaqtaq Airport

ICAO Code CYHA
IATA Code YQC
Name Quaqtaq Airport
Location Quaqtaq, Quebec, CA
Elevation 106 Feet / 32.3 Meters
Latitude 61.04638889
Longitude -69.61777778
METAR CYHA 171412Z 23008G15KT 8SM -RA FEW027 BKN059 OVC072 14/11 A2992 RMK SC1SC6AS2 SC TR SLP134
Extra information Display NOTAMS
Display Charts
Runway Length Width Surface Elevation
36 3520 ft 100 ft GRAVEL 104 ft
18 3520 ft 100 ft GRAVEL 95 ft